sensor_id;sensor_type;location;lat;lon;timestamp;temperature;humidity
21353;DHT22;10834;52.268;6.770;2024-01-30T00:00:46;7.90;99.90
21353;DHT22;10834;52.268;6.770;2024-01-30T00:03:30;8.00;99.90
21353;DHT22;10834;52.268;6.770;2024-01-30T00:06:14;8.10;99.90
21353;DHT22;10834;52.268;6.770;2024-01-30T00:09:02;8.20;99.90
21353;DHT22;10834;52.268;6.770;2024-01-30T00:11:46;8.20;99.90
21353;DHT22;10834;52.268;6.770;2024-01-30T00:14:30;8.30;99.90
21353;DHT22;10834;52.268;6.770;2024-01-30T00:17:14;8.30;99.90
21353;DHT22;10834;52.268;6.770;2024-01-30T00:19:58;8.40;99.90
21353;DHT22;10834;52.268;6.770;2024-01-30T00:22:42;8.40;99.90
21353;DHT22;10834;52.268;6.770;2024-01-30T00:25:27;8.40;99.90
21353;DHT22;10834;52.268;6.770;2024-01-30T00:28:11;8.40;99.90
21353;DHT22;10834;52.268;6.770;2024-01-30T00:30:55;8.40;99.90
21353;DHT22;10834;52.268;6.770;2024-01-30T00:33:40;8.40;99.90
21353;DHT22;10834;52.268;6.770;2024-01-30T00:36:24;8.40;99.90
21353;DHT22;10834;52.268;6.770;2024-01-30T00:39:08;8.40;99.90
21353;DHT22;10834;52.268;6.770;2024-01-30T00:41:53;8.40;99.90
21353;DHT22;10834;52.268;6.770;2024-01-30T00:44:37;8.40;99.90
21353;DHT22;10834;52.268;6.770;2024-01-30T00:47:22;8.40;99.90
21353;DHT22;10834;52.268;6.770;2024-01-30T00:50:07;8.40;99.90
21353;DHT22;10834;52.268;6.770;2024-01-30T00:52:51;8.40;99.90
21353;DHT22;10834;52.268;6.770;2024-01-30T00:55:35;8.40;99.90
21353;DHT22;10834;52.268;6.770;2024-01-30T00:58:20;8.40;99.90
21353;DHT22;10834;52.268;6.770;2024-01-30T01:01:04;8.40;99.90
21353;DHT22;10834;52.268;6.770;2024-01-30T01:03:48;8.40;99.90
21353;DHT22;10834;52.268;6.770;2024-01-30T01:06:32;8.40;99.90
21353;DHT22;10834;52.268;6.770;2024-01-30T01:09:17;8.40;99.90
21353;DHT22;10834;52.268;6.770;2024-01-30T01:12:01;8.50;99.90
21353;DHT22;10834;52.268;6.770;2024-01-30T01:14:46;8.50;99.90
21353;DHT22;10834;52.268;6.770;2024-01-30T01:17:30;8.50;99.90
21353;DHT22;10834;52.268;6.770;2024-01-30T01:20:14;8.50;99.90
21353;DHT22;10834;52.268;6.770;2024-01-30T01:22:59;8.40;99.90
21353;DHT22;10834;52.268;6.770;2024-01-30T01:25:43;8.40;99.90
21353;DHT22;10834;52.268;6.770;2024-01-30T01:28:27;8.40;99.90
21353;DHT22;10834;52.268;6.770;2024-01-30T01:31:11;8.40;99.90
21353;DHT22;10834;52.268;6.770;2024-01-30T01:33:56;8.30;99.90
21353;DHT22;10834;52.268;6.770;2024-01-30T01:36:40;8.30;99.90
21353;DHT22;10834;52.268;6.770;2024-01-30T01:39:24;8.30;99.90
21353;DHT22;10834;52.268;6.770;2024-01-30T01:42:08;8.30;99.90
21353;DHT22;10834;52.268;6.770;2024-01-30T01:44:52;8.20;99.90
21353;DHT22;10834;52.268;6.770;2024-01-30T01:47:36;8.20;99.90
21353;DHT22;10834;52.268;6.770;2024-01-30T01:50:22;8.20;99.90
21353;DHT22;10834;52.268;6.770;2024-01-30T01:53:07;8.20;99.90
21353;DHT22;10834;52.268;6.770;2024-01-30T01:55:52;8.10;99.90
21353;DHT22;10834;52.268;6.770;2024-01-30T01:58:38;8.10;99.90
21353;DHT22;10834;52.268;6.770;2024-01-30T02:01:23;8.10;99.90
21353;DHT22;10834;52.268;6.770;2024-01-30T02:04:09;8.00;99.90
21353;DHT22;10834;52.268;6.770;2024-01-30T02:06:52;8.00;99.90
21353;DHT22;10834;52.268;6.770;2024-01-30T02:09:37;8.00;99.90
21353;DHT22;10834;52.268;6.770;2024-01-30T02:12:21;7.90;99.90
21353;DHT22;10834;52.268;6.770;2024-01-30T02:15:05;7.90;99.90
21353;DHT22;10834;52.268;6.770;2024-01-30T02:17:49;7.90;99.90
21353;DHT22;10834;52.268;6.770;2024-01-30T02:20:35;7.80;99.90
21353;DHT22;10834;52.268;6.770;2024-01-30T02:23:20;7.80;99.90
21353;DHT22;10834;52.268;6.770;2024-01-30T02:26:04;7.80;99.90
21353;DHT22;10834;52.268;6.770;2024-01-30T02:28:48;7.80;99.90
21353;DHT22;10834;52.268;6.770;2024-01-30T02:31:32;7.70;99.90
21353;DHT22;10834;52.268;6.770;2024-01-30T02:34:17;7.70;99.90
21353;DHT22;10834;52.268;6.770;2024-01-30T02:37:01;7.70;99.90
21353;DHT22;10834;52.268;6.770;2024-01-30T02:39:45;7.70;99.90
21353;DHT22;10834;52.268;6.770;2024-01-30T02:42:30;7.70;99.90
21353;DHT22;10834;52.268;6.770;2024-01-30T02:45:14;7.80;99.90
21353;DHT22;10834;52.268;6.770;2024-01-30T02:47:59;7.80;99.90
21353;DHT22;10834;52.268;6.770;2024-01-30T02:50:43;7.70;99.90
21353;DHT22;10834;52.268;6.770;2024-01-30T02:53:27;7.70;99.90
21353;DHT22;10834;52.268;6.770;2024-01-30T02:56:12;7.70;99.90
21353;DHT22;10834;52.268;6.770;2024-01-30T02:58:57;7.70;99.90
21353;DHT22;10834;52.268;6.770;2024-01-30T03:01:44;7.70;99.90
21353;DHT22;10834;52.268;6.770;2024-01-30T03:04:29;7.70;99.90
21353;DHT22;10834;52.268;6.770;2024-01-30T03:07:14;7.70;99.90
21353;DHT22;10834;52.268;6.770;2024-01-30T03:09:58;7.70;99.90
21353;DHT22;10834;52.268;6.770;2024-01-30T03:12:42;7.70;99.90
21353;DHT22;10834;52.268;6.770;2024-01-30T03:15:26;7.70;99.90
21353;DHT22;10834;52.268;6.770;2024-01-30T03:18:11;7.70;99.90
21353;DHT22;10834;52.268;6.770;2024-01-30T03:20:55;7.70;99.90
21353;DHT22;10834;52.268;6.770;2024-01-30T03:23:39;7.70;99.90
21353;DHT22;10834;52.268;6.770;2024-01-30T03:26:23;7.70;99.90
21353;DHT22;10834;52.268;6.770;2024-01-30T03:29:07;7.70;99.90
21353;DHT22;10834;52.268;6.770;2024-01-30T03:31:51;7.60;99.90
21353;DHT22;10834;52.268;6.770;2024-01-30T03:34:36;7.60;99.90
21353;DHT22;10834;52.268;6.770;2024-01-30T03:37:20;7.70;99.90
21353;DHT22;10834;52.268;6.770;2024-01-30T03:40:04;7.70;99.90
21353;DHT22;10834;52.268;6.770;2024-01-30T03:42:49;7.70;99.90
21353;DHT22;10834;52.268;6.770;2024-01-30T03:45:33;7.60;99.90
21353;DHT22;10834;52.268;6.770;2024-01-30T03:48:17;7.60;99.90
21353;DHT22;10834;52.268;6.770;2024-01-30T03:51:01;7.60;99.90
21353;DHT22;10834;52.268;6.770;2024-01-30T03:53:45;7.60;99.90
21353;DHT22;10834;52.268;6.770;2024-01-30T03:56:30;7.60;99.90
21353;DHT22;10834;52.268;6.770;2024-01-30T03:59:14;7.60;99.90
21353;DHT22;10834;52.268;6.770;2024-01-30T04:01:59;7.60;99.90
21353;DHT22;10834;52.268;6.770;2024-01-30T04:04:45;7.60;99.90
21353;DHT22;10834;52.268;6.770;2024-01-30T04:07:29;7.60;99.90
21353;DHT22;10834;52.268;6.770;2024-01-30T04:10:14;7.60;99.90
21353;DHT22;10834;52.268;6.770;2024-01-30T04:12:58;7.60;99.90
21353;DHT22;10834;52.268;6.770;2024-01-30T04:15:42;7.70;99.90
21353;DHT22;10834;52.268;6.770;2024-01-30T04:18:26;7.70;99.90
21353;DHT22;10834;52.268;6.770;2024-01-30T04:21:10;7.70;99.90
21353;DHT22;10834;52.268;6.770;2024-01-30T04:23:55;7.70;99.90
21353;DHT22;10834;52.268;6.770;2024-01-30T04:26:39;7.70;99.90
21353;DHT22;10834;52.268;6.770;2024-01-30T04:29:23;7.60;99.90
21353;DHT22;10834;52.268;6.770;2024-01-30T04:32:07;7.60;99.90
21353;DHT22;10834;52.268;6.770;2024-01-30T04:34:51;7.60;99.90
21353;DHT22;10834;52.268;6.770;2024-01-30T04:37:34;7.60;99.90
21353;DHT22;10834;52.268;6.770;2024-01-30T04:40:20;7.60;99.90
21353;DHT22;10834;52.268;6.770;2024-01-30T04:43:04;7.60;99.90
21353;DHT22;10834;52.268;6.770;2024-01-30T04:45:49;7.50;99.90
21353;DHT22;10834;52.268;6.770;2024-01-30T04:48:33;7.60;99.90
21353;DHT22;10834;52.268;6.770;2024-01-30T04:51:17;7.60;99.90
21353;DHT22;10834;52.268;6.770;2024-01-30T04:54:02;7.60;99.90
21353;DHT22;10834;52.268;6.770;2024-01-30T04:56:46;7.70;99.90
21353;DHT22;10834;52.268;6.770;2024-01-30T04:59:30;7.70;99.90
21353;DHT22;10834;52.268;6.770;2024-01-30T05:02:14;7.80;99.90
21353;DHT22;10834;52.268;6.770;2024-01-30T05:04:58;7.80;99.90
21353;DHT22;10834;52.268;6.770;2024-01-30T05:07:43;7.80;99.90
21353;DHT22;10834;52.268;6.770;2024-01-30T05:10:27;7.80;99.90
21353;DHT22;10834;52.268;6.770;2024-01-30T05:13:12;7.80;99.90
21353;DHT22;10834;52.268;6.770;2024-01-30T05:15:57;7.70;99.90
21353;DHT22;10834;52.268;6.770;2024-01-30T05:18:42;7.80;99.90
21353;DHT22;10834;52.268;6.770;2024-01-30T05:21:26;7.70;99.90
21353;DHT22;10834;52.268;6.770;2024-01-30T05:24:10;7.70;99.90
21353;DHT22;10834;52.268;6.770;2024-01-30T05:26:55;7.70;99.90
21353;DHT22;10834;52.268;6.770;2024-01-30T05:29:40;7.70;99.90
21353;DHT22;10834;52.268;6.770;2024-01-30T05:32:25;7.60;99.90
21353;DHT22;10834;52.268;6.770;2024-01-30T05:35:09;7.60;99.90
21353;DHT22;10834;52.268;6.770;2024-01-30T05:37:53;7.60;99.90
21353;DHT22;10834;52.268;6.770;2024-01-30T05:40:37;7.50;99.90
21353;DHT22;10834;52.268;6.770;2024-01-30T05:43:21;7.50;99.90
21353;DHT22;10834;52.268;6.770;2024-01-30T05:46:06;7.50;99.90
21353;DHT22;10834;52.268;6.770;2024-01-30T05:48:50;7.50;99.90
21353;DHT22;10834;52.268;6.770;2024-01-30T05:51:35;7.50;99.90
21353;DHT22;10834;52.268;6.770;2024-01-30T05:54:19;7.60;99.90
21353;DHT22;10834;52.268;6.770;2024-01-30T05:57:03;7.60;99.90
21353;DHT22;10834;52.268;6.770;2024-01-30T05:59:47;7.60;99.90
21353;DHT22;10834;52.268;6.770;2024-01-30T06:02:32;7.70;99.90
21353;DHT22;10834;52.268;6.770;2024-01-30T06:05:16;7.70;99.90
21353;DHT22;10834;52.268;6.770;2024-01-30T06:08:01;7.70;99.90
21353;DHT22;10834;52.268;6.770;2024-01-30T06:10:45;7.80;99.90
21353;DHT22;10834;52.268;6.770;2024-01-30T06:13:29;7.80;99.90
21353;DHT22;10834;52.268;6.770;2024-01-30T06:16:15;7.80;99.90
21353;DHT22;10834;52.268;6.770;2024-01-30T06:18:59;7.80;99.90
21353;DHT22;10834;52.268;6.770;2024-01-30T06:21:44;7.80;99.90
21353;DHT22;10834;52.268;6.770;2024-01-30T06:24:29;7.80;99.90
21353;DHT22;10834;52.268;6.770;2024-01-30T06:27:14;7.80;99.90
21353;DHT22;10834;52.268;6.770;2024-01-30T06:29:59;7.90;99.90
21353;DHT22;10834;52.268;6.770;2024-01-30T06:32:44;7.80;99.90
21353;DHT22;10834;52.268;6.770;2024-01-30T06:35:28;7.90;99.90
21353;DHT22;10834;52.268;6.770;2024-01-30T06:38:13;7.90;99.90
21353;DHT22;10834;52.268;6.770;2024-01-30T06:40:57;7.90;99.90
21353;DHT22;10834;52.268;6.770;2024-01-30T06:43:41;7.90;99.90
21353;DHT22;10834;52.268;6.770;2024-01-30T06:46:25;8.00;99.90
21353;DHT22;10834;52.268;6.770;2024-01-30T06:49:10;8.00;99.90
21353;DHT22;10834;52.268;6.770;2024-01-30T06:51:54;8.00;99.90
21353;DHT22;10834;52.268;6.770;2024-01-30T06:54:38;8.00;99.90
21353;DHT22;10834;52.268;6.770;2024-01-30T06:57:24;8.10;99.90
21353;DHT22;10834;52.268;6.770;2024-01-30T07:00:08;8.10;99.90
21353;DHT22;10834;52.268;6.770;2024-01-30T07:02:52;8.20;99.90
21353;DHT22;10834;52.268;6.770;2024-01-30T07:05:36;8.30;99.90
21353;DHT22;10834;52.268;6.770;2024-01-30T07:08:21;8.30;99.90
21353;DHT22;10834;52.268;6.770;2024-01-30T07:11:06;8.30;99.90
21353;DHT22;10834;52.268;6.770;2024-01-30T07:13:51;8.30;99.90
21353;DHT22;10834;52.268;6.770;2024-01-30T07:16:35;8.30;99.90
21353;DHT22;10834;52.268;6.770;2024-01-30T07:19:20;8.40;99.90
21353;DHT22;10834;52.268;6.770;2024-01-30T07:22:04;8.30;99.90
21353;DHT22;10834;52.268;6.770;2024-01-30T07:24:48;8.40;99.90
21353;DHT22;10834;52.268;6.770;2024-01-30T07:27:33;8.40;99.90
21353;DHT22;10834;52.268;6.770;2024-01-30T07:30:17;8.40;99.90
21353;DHT22;10834;52.268;6.770;2024-01-30T07:33:02;8.40;99.90
21353;DHT22;10834;52.268;6.770;2024-01-30T07:35:46;8.50;99.90
21353;DHT22;10834;52.268;6.770;2024-01-30T07:38:34;8.50;99.90
21353;DHT22;10834;52.268;6.770;2024-01-30T07:41:18;8.60;99.90
21353;DHT22;10834;52.268;6.770;2024-01-30T07:44:03;8.60;99.90
21353;DHT22;10834;52.268;6.770;2024-01-30T07:46:48;8.60;99.90
21353;DHT22;10834;52.268;6.770;2024-01-30T07:49:32;8.70;99.90
21353;DHT22;10834;52.268;6.770;2024-01-30T07:52:17;8.70;99.90
21353;DHT22;10834;52.268;6.770;2024-01-30T07:55:01;8.70;99.90
21353;DHT22;10834;52.268;6.770;2024-01-30T07:57:45;8.70;99.90
21353;DHT22;10834;52.268;6.770;2024-01-30T08:00:29;8.70;99.90
21353;DHT22;10834;52.268;6.770;2024-01-30T08:03:14;8.80;99.90
21353;DHT22;10834;52.268;6.770;2024-01-30T08:06:00;8.80;99.90
21353;DHT22;10834;52.268;6.770;2024-01-30T08:08:44;8.90;99.90
21353;DHT22;10834;52.268;6.770;2024-01-30T08:11:28;8.90;99.90
21353;DHT22;10834;52.268;6.770;2024-01-30T08:14:13;9.00;99.90
21353;DHT22;10834;52.268;6.770;2024-01-30T08:16:58;9.10;99.90
21353;DHT22;10834;52.268;6.770;2024-01-30T08:19:42;9.10;99.90
21353;DHT22;10834;52.268;6.770;2024-01-30T08:22:26;9.20;99.90
21353;DHT22;10834;52.268;6.770;2024-01-30T08:25:11;9.20;99.90
21353;DHT22;10834;52.268;6.770;2024-01-30T08:27:56;9.30;99.90
21353;DHT22;10834;52.268;6.770;2024-01-30T08:30:41;9.30;99.90
21353;DHT22;10834;52.268;6.770;2024-01-30T08:33:25;9.40;99.90
21353;DHT22;10834;52.268;6.770;2024-01-30T08:36:09;9.40;99.90
21353;DHT22;10834;52.268;6.770;2024-01-30T08:38:53;9.40;99.90
21353;DHT22;10834;52.268;6.770;2024-01-30T08:41:37;9.40;99.90
21353;DHT22;10834;52.268;6.770;2024-01-30T08:44:21;9.50;99.90
21353;DHT22;10834;52.268;6.770;2024-01-30T08:47:05;9.50;99.90
21353;DHT22;10834;52.268;6.770;2024-01-30T08:49:50;9.50;99.90
21353;DHT22;10834;52.268;6.770;2024-01-30T08:52:34;9.60;99.90
21353;DHT22;10834;52.268;6.770;2024-01-30T08:55:18;9.60;99.90
21353;DHT22;10834;52.268;6.770;2024-01-30T08:58:03;9.60;99.90
21353;DHT22;10834;52.268;6.770;2024-01-30T09:00:49;9.70;99.90
21353;DHT22;10834;52.268;6.770;2024-01-30T09:03:35;9.70;99.90
21353;DHT22;10834;52.268;6.770;2024-01-30T09:06:21;9.70;99.90
21353;DHT22;10834;52.268;6.770;2024-01-30T09:09:05;9.80;99.90
21353;DHT22;10834;52.268;6.770;2024-01-30T09:11:50;9.80;99.90
21353;DHT22;10834;52.268;6.770;2024-01-30T09:14:34;9.80;99.90
21353;DHT22;10834;52.268;6.770;2024-01-30T09:17:18;9.90;99.90
21353;DHT22;10834;52.268;6.770;2024-01-30T09:20:03;9.90;99.90
21353;DHT22;10834;52.268;6.770;2024-01-30T09:22:47;9.90;99.90
21353;DHT22;10834;52.268;6.770;2024-01-30T09:25:32;10.00;99.90
21353;DHT22;10834;52.268;6.770;2024-01-30T09:28:17;10.10;99.90
21353;DHT22;10834;52.268;6.770;2024-01-30T09:31:02;10.20;99.90
21353;DHT22;10834;52.268;6.770;2024-01-30T09:33:46;10.20;99.90
21353;DHT22;10834;52.268;6.770;2024-01-30T09:36:32;10.40;99.90
21353;DHT22;10834;52.268;6.770;2024-01-30T09:39:17;10.50;99.90
21353;DHT22;10834;52.268;6.770;2024-01-30T09:45:14;11.20;99.90
21353;DHT22;10834;52.268;6.770;2024-01-30T09:47:59;11.40;99.90
21353;DHT22;10834;52.268;6.770;2024-01-30T09:50:43;11.50;99.90
21353;DHT22;10834;52.268;6.770;2024-01-30T09:53:28;11.60;99.90
21353;DHT22;10834;52.268;6.770;2024-01-30T09:56:12;11.70;99.90
21353;DHT22;10834;52.268;6.770;2024-01-30T09:58:57;11.70;99.90
21353;DHT22;10834;52.268;6.770;2024-01-30T10:01:42;11.60;99.90
21353;DHT22;10834;52.268;6.770;2024-01-30T10:04:27;11.50;99.90
21353;DHT22;10834;52.268;6.770;2024-01-30T10:07:11;11.40;99.90
21353;DHT22;10834;52.268;6.770;2024-01-30T10:09:56;11.30;99.90
21353;DHT22;10834;52.268;6.770;2024-01-30T10:12:40;11.20;99.90
21353;DHT22;10834;52.268;6.770;2024-01-30T10:15:25;11.20;99.90
21353;DHT22;10834;52.268;6.770;2024-01-30T10:18:11;11.20;99.90
21353;DHT22;10834;52.268;6.770;2024-01-30T10:20:56;11.30;99.90
21353;DHT22;10834;52.268;6.770;2024-01-30T10:23:41;11.50;99.90
21353;DHT22;10834;52.268;6.770;2024-01-30T10:26:27;11.50;99.90
21353;DHT22;10834;52.268;6.770;2024-01-30T10:29:13;11.50;99.90
21353;DHT22;10834;52.268;6.770;2024-01-30T10:32:01;11.50;99.90
21353;DHT22;10834;52.268;6.770;2024-01-30T10:34:46;11.40;99.90
21353;DHT22;10834;52.268;6.770;2024-01-30T10:37:30;11.40;99.90
21353;DHT22;10834;52.268;6.770;2024-01-30T10:40:16;11.40;99.90
21353;DHT22;10834;52.268;6.770;2024-01-30T10:43:02;11.40;99.90
21353;DHT22;10834;52.268;6.770;2024-01-30T10:45:47;11.50;99.90
21353;DHT22;10834;52.268;6.770;2024-01-30T10:48:36;11.50;99.90
21353;DHT22;10834;52.268;6.770;2024-01-30T10:51:26;11.60;99.90
21353;DHT22;10834;52.268;6.770;2024-01-30T10:54:12;11.60;99.90
21353;DHT22;10834;52.268;6.770;2024-01-30T10:56:58;11.60;99.90
21353;DHT22;10834;52.268;6.770;2024-01-30T10:59:46;11.60;99.90
21353;DHT22;10834;52.268;6.770;2024-01-30T11:02:32;11.50;99.90
21353;DHT22;10834;52.268;6.770;2024-01-30T11:05:24;11.50;99.90
21353;DHT22;10834;52.268;6.770;2024-01-30T11:08:13;11.50;99.90
21353;DHT22;10834;52.268;6.770;2024-01-30T11:10:58;11.50;99.90
21353;DHT22;10834;52.268;6.770;2024-01-30T11:13:42;11.50;99.90
21353;DHT22;10834;52.268;6.770;2024-01-30T11:16:32;11.70;99.90
21353;DHT22;10834;52.268;6.770;2024-01-30T11:19:23;11.70;99.90
21353;DHT22;10834;52.268;6.770;2024-01-30T11:22:08;11.80;99.90
21353;DHT22;10834;52.268;6.770;2024-01-30T11:24:53;11.90;99.90
21353;DHT22;10834;52.268;6.770;2024-01-30T11:27:37;12.00;99.90
21353;DHT22;10834;52.268;6.770;2024-01-30T11:30:30;12.10;99.90
21353;DHT22;10834;52.268;6.770;2024-01-30T11:33:15;12.20;99.90
21353;DHT22;10834;52.268;6.770;2024-01-30T11:35:59;12.20;99.90
21353;DHT22;10834;52.268;6.770;2024-01-30T11:38:44;12.20;99.90
21353;DHT22;10834;52.268;6.770;2024-01-30T11:41:31;12.10;99.90
21353;DHT22;10834;52.268;6.770;2024-01-30T11:44:15;12.10;99.90
21353;DHT22;10834;52.268;6.770;2024-01-30T11:47:00;12.10;99.90
21353;DHT22;10834;52.268;6.770;2024-01-30T11:49:44;12.10;99.90
21353;DHT22;10834;52.268;6.770;2024-01-30T11:52:28;12.10;99.90
21353;DHT22;10834;52.268;6.770;2024-01-30T11:55:13;12.10;99.90
21353;DHT22;10834;52.268;6.770;2024-01-30T11:57:58;12.10;99.90
21353;DHT22;10834;52.268;6.770;2024-01-30T12:00:52;12.10;99.90
21353;DHT22;10834;52.268;6.770;2024-01-30T12:03:36;12.00;99.90
21353;DHT22;10834;52.268;6.770;2024-01-30T12:06:20;12.10;99.90
21353;DHT22;10834;52.268;6.770;2024-01-30T12:09:05;12.10;99.90
21353;DHT22;10834;52.268;6.770;2024-01-30T12:11:52;12.20;99.90
21353;DHT22;10834;52.268;6.770;2024-01-30T12:14:36;12.30;99.90
21353;DHT22;10834;52.268;6.770;2024-01-30T12:17:31;12.30;99.90
21353;DHT22;10834;52.268;6.770;2024-01-30T12:20:19;12.30;99.90
21353;DHT22;10834;52.268;6.770;2024-01-30T12:23:05;12.30;99.90
21353;DHT22;10834;52.268;6.770;2024-01-30T12:25:50;12.30;99.90
21353;DHT22;10834;52.268;6.770;2024-01-30T12:28:35;12.30;99.90
21353;DHT22;10834;52.268;6.770;2024-01-30T12:31:25;12.40;99.90
21353;DHT22;10834;52.268;6.770;2024-01-30T12:34:13;12.50;99.90
21353;DHT22;10834;52.268;6.770;2024-01-30T12:36:58;12.40;99.90
21353;DHT22;10834;52.268;6.770;2024-01-30T12:39:42;12.40;99.90
21353;DHT22;10834;52.268;6.770;2024-01-30T12:42:27;12.40;99.90
21353;DHT22;10834;52.268;6.770;2024-01-30T12:45:11;12.40;99.90
21353;DHT22;10834;52.268;6.770;2024-01-30T12:47:57;12.20;99.90
21353;DHT22;10834;52.268;6.770;2024-01-30T12:50:42;12.20;99.90
21353;DHT22;10834;52.268;6.770;2024-01-30T12:53:26;12.20;99.90
21353;DHT22;10834;52.268;6.770;2024-01-30T12:56:10;12.20;99.90
21353;DHT22;10834;52.268;6.770;2024-01-30T12:58:54;12.30;99.90
21353;DHT22;10834;52.268;6.770;2024-01-30T13:01:38;12.40;99.90
21353;DHT22;10834;52.268;6.770;2024-01-30T13:04:23;12.50;99.90
21353;DHT22;10834;52.268;6.770;2024-01-30T13:07:07;12.50;99.90
21353;DHT22;10834;52.268;6.770;2024-01-30T13:09:51;12.60;99.90
21353;DHT22;10834;52.268;6.770;2024-01-30T13:12:35;12.60;99.90
21353;DHT22;10834;52.268;6.770;2024-01-30T13:15:21;12.80;99.90
21353;DHT22;10834;52.268;6.770;2024-01-30T13:18:06;12.90;99.90
21353;DHT22;10834;52.268;6.770;2024-01-30T13:20:51;13.10;99.90
21353;DHT22;10834;52.268;6.770;2024-01-30T13:23:35;13.20;99.90
21353;DHT22;10834;52.268;6.770;2024-01-30T13:26:19;13.30;99.90
21353;DHT22;10834;52.268;6.770;2024-01-30T13:29:03;13.20;99.90
21353;DHT22;10834;52.268;6.770;2024-01-30T13:31:47;13.20;99.90
21353;DHT22;10834;52.268;6.770;2024-01-30T13:34:32;13.10;99.90
21353;DHT22;10834;52.268;6.770;2024-01-30T13:37:16;13.00;99.90
21353;DHT22;10834;52.268;6.770;2024-01-30T13:40:02;13.00;99.90
21353;DHT22;10834;52.268;6.770;2024-01-30T13:42:47;12.90;99.90
21353;DHT22;10834;52.268;6.770;2024-01-30T13:45:32;12.90;99.90
21353;DHT22;10834;52.268;6.770;2024-01-30T13:48:16;12.90;99.90
21353;DHT22;10834;52.268;6.770;2024-01-30T13:51:00;12.80;99.90
21353;DHT22;10834;52.268;6.770;2024-01-30T13:53:44;12.70;99.90
21353;DHT22;10834;52.268;6.770;2024-01-30T13:56:29;12.50;99.90
21353;DHT22;10834;52.268;6.770;2024-01-30T13:59:14;12.40;99.90
21353;DHT22;10834;52.268;6.770;2024-01-30T14:01:58;12.30;99.90
21353;DHT22;10834;52.268;6.770;2024-01-30T14:04:43;12.30;99.90
21353;DHT22;10834;52.268;6.770;2024-01-30T14:07:27;12.30;99.90
21353;DHT22;10834;52.268;6.770;2024-01-30T14:10:12;12.30;99.90
21353;DHT22;10834;52.268;6.770;2024-01-30T14:12:56;12.30;99.90
21353;DHT22;10834;52.268;6.770;2024-01-30T14:15:41;12.10;99.90
21353;DHT22;10834;52.268;6.770;2024-01-30T14:18:25;12.00;99.90
21353;DHT22;10834;52.268;6.770;2024-01-30T14:21:09;11.80;99.90
21353;DHT22;10834;52.268;6.770;2024-01-30T14:23:53;11.70;99.90
21353;DHT22;10834;52.268;6.770;2024-01-30T14:26:37;11.60;99.90
21353;DHT22;10834;52.268;6.770;2024-01-30T14:29:21;11.60;99.90
21353;DHT22;10834;52.268;6.770;2024-01-30T14:32:06;11.40;99.90
21353;DHT22;10834;52.268;6.770;2024-01-30T14:34:51;11.40;99.90
21353;DHT22;10834;52.268;6.770;2024-01-30T14:37:37;11.40;99.90
21353;DHT22;10834;52.268;6.770;2024-01-30T14:40:21;11.40;99.90
21353;DHT22;10834;52.268;6.770;2024-01-30T14:43:05;11.40;99.90
21353;DHT22;10834;52.268;6.770;2024-01-30T14:45:50;11.40;99.90
21353;DHT22;10834;52.268;6.770;2024-01-30T14:48:36;11.40;99.90
21353;DHT22;10834;52.268;6.770;2024-01-30T14:51:20;11.30;99.90
21353;DHT22;10834;52.268;6.770;2024-01-30T14:54:04;11.20;99.90
21353;DHT22;10834;52.268;6.770;2024-01-30T14:56:48;11.20;99.90
21353;DHT22;10834;52.268;6.770;2024-01-30T14:59:32;11.10;99.90
21353;DHT22;10834;52.268;6.770;2024-01-30T15:02:18;11.10;99.90
21353;DHT22;10834;52.268;6.770;2024-01-30T15:05:02;11.00;99.90
21353;DHT22;10834;52.268;6.770;2024-01-30T15:07:46;11.00;99.90
21353;DHT22;10834;52.268;6.770;2024-01-30T15:10:31;10.90;99.90
21353;DHT22;10834;52.268;6.770;2024-01-30T15:13:16;10.80;99.90
21353;DHT22;10834;52.268;6.770;2024-01-30T15:16:00;10.80;99.90
21353;DHT22;10834;52.268;6.770;2024-01-30T15:18:47;10.70;99.90
21353;DHT22;10834;52.268;6.770;2024-01-30T15:21:31;10.70;99.90
21353;DHT22;10834;52.268;6.770;2024-01-30T15:24:16;10.70;99.90
21353;DHT22;10834;52.268;6.770;2024-01-30T15:27:02;10.70;99.90
21353;DHT22;10834;52.268;6.770;2024-01-30T15:29:46;10.60;99.90
21353;DHT22;10834;52.268;6.770;2024-01-30T15:32:30;10.60;99.90
21353;DHT22;10834;52.268;6.770;2024-01-30T15:35:15;10.50;99.90
21353;DHT22;10834;52.268;6.770;2024-01-30T15:37:59;10.50;99.90
21353;DHT22;10834;52.268;6.770;2024-01-30T15:40:44;10.50;99.90
21353;DHT22;10834;52.268;6.770;2024-01-30T15:43:28;10.40;99.90
21353;DHT22;10834;52.268;6.770;2024-01-30T15:46:12;10.40;99.90
21353;DHT22;10834;52.268;6.770;2024-01-30T15:48:56;10.30;99.90
21353;DHT22;10834;52.268;6.770;2024-01-30T15:51:41;10.20;99.90
21353;DHT22;10834;52.268;6.770;2024-01-30T15:54:25;10.10;99.90
21353;DHT22;10834;52.268;6.770;2024-01-30T15:57:09;10.00;99.90
21353;DHT22;10834;52.268;6.770;2024-01-30T15:59:53;9.90;99.90
21353;DHT22;10834;52.268;6.770;2024-01-30T16:02:38;9.90;99.90
21353;DHT22;10834;52.268;6.770;2024-01-30T16:05:21;9.80;99.90
21353;DHT22;10834;52.268;6.770;2024-01-30T16:08:06;9.80;99.90
21353;DHT22;10834;52.268;6.770;2024-01-30T16:10:50;9.80;99.90
21353;DHT22;10834;52.268;6.770;2024-01-30T16:13:35;9.70;99.90
21353;DHT22;10834;52.268;6.770;2024-01-30T16:16:21;9.70;99.90
21353;DHT22;10834;52.268;6.770;2024-01-30T16:19:05;9.70;99.90
21353;DHT22;10834;52.268;6.770;2024-01-30T16:21:49;9.70;99.90
21353;DHT22;10834;52.268;6.770;2024-01-30T16:24:33;9.60;99.90
21353;DHT22;10834;52.268;6.770;2024-01-30T16:27:18;9.60;99.90
21353;DHT22;10834;52.268;6.770;2024-01-30T16:30:03;9.50;99.90
21353;DHT22;10834;52.268;6.770;2024-01-30T16:32:47;9.50;99.90
21353;DHT22;10834;52.268;6.770;2024-01-30T16:35:31;9.50;99.90
21353;DHT22;10834;52.268;6.770;2024-01-30T16:38:16;9.40;99.90
21353;DHT22;10834;52.268;6.770;2024-01-30T16:41:00;9.40;99.90
21353;DHT22;10834;52.268;6.770;2024-01-30T16:43:44;9.40;99.90
21353;DHT22;10834;52.268;6.770;2024-01-30T16:46:28;9.40;99.90
21353;DHT22;10834;52.268;6.770;2024-01-30T16:49:12;9.40;99.90
21353;DHT22;10834;52.268;6.770;2024-01-30T16:51:56;9.30;99.90
21353;DHT22;10834;52.268;6.770;2024-01-30T16:54:40;9.30;99.90
21353;DHT22;10834;52.268;6.770;2024-01-30T16:57:25;9.20;99.90
21353;DHT22;10834;52.268;6.770;2024-01-30T17:00:09;9.20;99.90
21353;DHT22;10834;52.268;6.770;2024-01-30T17:02:54;9.20;99.90
21353;DHT22;10834;52.268;6.770;2024-01-30T17:05:38;9.10;99.90
21353;DHT22;10834;52.268;6.770;2024-01-30T17:08:22;9.10;99.90
21353;DHT22;10834;52.268;6.770;2024-01-30T17:11:06;9.00;99.90
21353;DHT22;10834;52.268;6.770;2024-01-30T17:13:51;9.00;99.90
21353;DHT22;10834;52.268;6.770;2024-01-30T17:16:35;9.00;99.90
21353;DHT22;10834;52.268;6.770;2024-01-30T17:19:19;8.90;99.90
21353;DHT22;10834;52.268;6.770;2024-01-30T17:22:03;8.90;99.90
21353;DHT22;10834;52.268;6.770;2024-01-30T17:24:50;8.90;99.90
21353;DHT22;10834;52.268;6.770;2024-01-30T17:27:34;8.80;99.90
21353;DHT22;10834;52.268;6.770;2024-01-30T17:30:21;8.80;99.90
21353;DHT22;10834;52.268;6.770;2024-01-30T17:33:06;8.70;99.90